sensor_id;sensor_type;location;lat;lon;timestamp;noise_LAeq;noise_LA_min;noise_LA_max;noise_LA01;noise_LA95
71020;Laerm;58902;51.436;5.980;2022-08-05T00:00:01;30.35;28.62;35.03;;
71020;Laerm;58902;51.436;5.980;2022-08-05T00:00:12;38.88;29.39;50.21;;
71020;Laerm;58902;51.436;5.980;2022-08-05T00:00:24;30.34;28.68;34.55;;
71020;Laerm;58902;51.436;5.980;2022-08-05T00:00:44;31.84;29.27;36.77;;
71020;Laerm;58902;51.436;5.980;2022-08-05T00:01:26;32.01;29.77;40.77;;
71020;Laerm;58902;51.436;5.980;2022-08-05T00:01:43;33.19;29.95;38.06;;
71020;Laerm;58902;51.436;5.980;2022-08-05T00:02:00;31.26;29.72;35.16;;
71020;Laerm;58902;51.436;5.980;2022-08-05T00:02:14;32.65;29.81;37.55;;
71020;Laerm;58902;51.436;5.980;2022-08-05T00:02:26;34.12;32.59;37.30;;
71020;Laerm;58902;51.436;5.980;2022-08-05T00:02:39;34.19;32.55;37.95;;
71020;Laerm;58902;51.436;5.980;2022-08-05T00:02:51;33.66;31.41;36.02;;
71020;Laerm;58902;51.436;5.980;2022-08-05T00:03:03;33.57;32.15;35.18;;
71020;Laerm;58902;51.436;5.980;2022-08-05T00:03:17;33.36;30.57;36.56;;
71020;Laerm;58902;51.436;5.980;2022-08-05T00:03:29;33.87;31.84;38.17;;
71020;Laerm;58902;51.436;5.980;2022-08-05T00:03:42;32.51;28.83;43.26;;
71020;Laerm;58902;51.436;5.980;2022-08-05T00:03:53;30.30;28.63;38.12;;
71020;Laerm;58902;51.436;5.980;2022-08-05T00:04:04;30.13;28.72;33.72;;
71020;Laerm;58902;51.436;5.980;2022-08-05T00:04:15;30.06;28.46;35.75;;
71020;Laerm;58902;51.436;5.980;2022-08-05T00:04:26;30.09;28.78;32.56;;
71020;Laerm;58902;51.436;5.980;2022-08-05T00:04:37;30.19;28.33;34.37;;
71020;Laerm;58902;51.436;5.980;2022-08-05T00:04:48;30.29;28.69;40.26;;
71020;Laerm;58902;51.436;5.980;2022-08-05T00:04:59;30.06;28.26;33.37;;
71020;Laerm;58902;51.436;5.980;2022-08-05T00:05:10;29.99;28.64;31.90;;
71020;Laerm;58902;51.436;5.980;2022-08-05T00:05:21;30.17;28.84;33.28;;
71020;Laerm;58902;51.436;5.980;2022-08-05T00:05:33;30.29;28.62;35.16;;
71020;Laerm;58902;51.436;5.980;2022-08-05T00:05:44;30.28;28.57;34.61;;
71020;Laerm;58902;51.436;5.980;2022-08-05T00:05:55;30.40;29.05;37.30;;
71020;Laerm;58902;51.436;5.980;2022-08-05T00:06:06;30.32;29.21;35.27;;
71020;Laerm;58902;51.436;5.980;2022-08-05T00:06:18;30.52;29.38;35.28;;
71020;Laerm;58902;51.436;5.980;2022-08-05T00:06:29;30.83;29.04;34.59;;
71020;Laerm;58902;51.436;5.980;2022-08-05T00:06:40;31.00;29.52;34.60;;
71020;Laerm;58902;51.436;5.980;2022-08-05T00:06:51;30.70;29.39;35.02;;
71020;Laerm;58902;51.436;5.980;2022-08-05T00:07:02;30.55;29.17;32.43;;
71020;Laerm;58902;51.436;5.980;2022-08-05T00:07:13;30.51;29.12;34.19;;
71020;Laerm;58902;51.436;5.980;2022-08-05T00:07:24;30.46;29.10;33.30;;
71020;Laerm;58902;51.436;5.980;2022-08-05T00:07:35;30.39;29.15;33.72;;
71020;Laerm;58902;51.436;5.980;2022-08-05T00:07:46;30.37;29.05;31.66;;
71020;Laerm;58902;51.436;5.980;2022-08-05T00:07:56;30.29;28.66;32.86;;
71020;Laerm;58902;51.436;5.980;2022-08-05T00:08:07;30.27;28.80;32.12;;
71020;Laerm;58902;51.436;5.980;2022-08-05T00:08:19;30.40;28.94;33.58;;
71020;Laerm;58902;51.436;5.980;2022-08-05T00:08:29;30.72;29.11;32.31;;
71020;Laerm;58902;51.436;5.980;2022-08-05T00:08:40;30.97;29.60;34.81;;
71020;Laerm;58902;51.436;5.980;2022-08-05T00:08:51;30.71;29.48;33.68;;
71020;Laerm;58902;51.436;5.980;2022-08-05T00:09:02;30.80;29.35;33.73;;
71020;Laerm;58902;51.436;5.980;2022-08-05T00:09:14;30.81;29.18;35.52;;
71020;Laerm;58902;51.436;5.980;2022-08-05T00:09:24;32.10;29.55;35.66;;
71020;Laerm;58902;51.436;5.980;2022-08-05T00:09:35;38.64;33.25;45.10;;
71020;Laerm;58902;51.436;5.980;2022-08-05T00:09:46;33.91;30.21;38.59;;
71020;Laerm;58902;51.436;5.980;2022-08-05T00:09:56;32.78;30.16;37.47;;
71020;Laerm;58902;51.436;5.980;2022-08-05T00:10:07;33.69;31.05;38.16;;
71020;Laerm;58902;51.436;5.980;2022-08-05T00:10:18;34.08;32.15;37.98;;
71020;Laerm;58902;51.436;5.980;2022-08-05T00:10:28;34.11;32.24;36.98;;
71020;Laerm;58902;51.436;5.980;2022-08-05T00:10:39;32.68;29.99;36.10;;
71020;Laerm;58902;51.436;5.980;2022-08-05T00:10:49;31.61;29.38;36.13;;
71020;Laerm;58902;51.436;5.980;2022-08-05T00:11:01;31.90;29.90;36.56;;
71020;Laerm;58902;51.436;5.980;2022-08-05T00:11:13;33.83;31.34;37.87;;
71020;Laerm;58902;51.436;5.980;2022-08-05T00:11:24;33.39;31.91;34.72;;
71020;Laerm;58902;51.436;5.980;2022-08-05T00:11:35;33.52;32.07;36.92;;
71020;Laerm;58902;51.436;5.980;2022-08-05T00:11:46;33.38;32.00;36.76;;
71020;Laerm;58902;51.436;5.980;2022-08-05T00:11:57;33.30;32.01;36.88;;
71020;Laerm;58902;51.436;5.980;2022-08-05T00:12:07;34.11;32.46;45.31;;
71020;Laerm;58902;51.436;5.980;2022-08-05T00:12:18;33.83;32.61;34.99;;
71020;Laerm;58902;51.436;5.980;2022-08-05T00:12:29;33.94;32.89;35.31;;
71020;Laerm;58902;51.436;5.980;2022-08-05T00:12:39;34.49;32.58;43.31;;
71020;Laerm;58902;51.436;5.980;2022-08-05T00:12:50;34.13;33.23;35.81;;
71020;Laerm;58902;51.436;5.980;2022-08-05T00:13:00;34.23;32.89;36.98;;
71020;Laerm;58902;51.436;5.980;2022-08-05T00:13:10;34.09;32.23;38.13;;
71020;Laerm;58902;51.436;5.980;2022-08-05T00:13:21;33.31;31.89;35.31;;
71020;Laerm;58902;51.436;5.980;2022-08-05T00:13:35;33.62;32.11;36.95;;
71020;Laerm;58902;51.436;5.980;2022-08-05T00:13:45;33.70;32.63;35.72;;
71020;Laerm;58902;51.436;5.980;2022-08-05T00:13:56;33.37;32.28;34.60;;
71020;Laerm;58902;51.436;5.980;2022-08-05T00:14:06;33.48;31.93;34.83;;
71020;Laerm;58902;51.436;5.980;2022-08-05T00:14:16;33.72;32.62;34.66;;
71020;Laerm;58902;51.436;5.980;2022-08-05T00:14:27;33.64;32.52;35.82;;
71020;Laerm;58902;51.436;5.980;2022-08-05T00:14:37;33.68;30.48;37.59;;
71020;Laerm;58902;51.436;5.980;2022-08-05T00:14:47;32.65;31.58;34.22;;
71020;Laerm;58902;51.436;5.980;2022-08-05T00:14:58;32.11;30.81;33.55;;
71020;Laerm;58902;51.436;5.980;2022-08-05T00:15:08;32.06;30.51;34.24;;
71020;Laerm;58902;51.436;5.980;2022-08-05T00:15:19;32.22;30.89;34.77;;
71020;Laerm;58902;51.436;5.980;2022-08-05T00:15:29;32.39;31.02;35.67;;
71020;Laerm;58902;51.436;5.980;2022-08-05T00:15:40;32.32;31.04;34.90;;
71020;Laerm;58902;51.436;5.980;2022-08-05T00:15:52;32.13;31.04;34.62;;
71020;Laerm;58902;51.436;5.980;2022-08-05T00:16:03;32.01;30.86;33.09;;
71020;Laerm;58902;51.436;5.980;2022-08-05T00:16:14;32.04;30.96;34.32;;
71020;Laerm;58902;51.436;5.980;2022-08-05T00:16:25;32.46;31.11;36.26;;
71020;Laerm;58902;51.436;5.980;2022-08-05T00:16:35;32.48;31.31;37.59;;
71020;Laerm;58902;51.436;5.980;2022-08-05T00:16:45;32.25;30.99;34.29;;
71020;Laerm;58902;51.436;5.980;2022-08-05T00:16:56;35.98;32.84;39.37;;
71020;Laerm;58902;51.436;5.980;2022-08-05T00:17:06;34.98;33.60;36.43;;
71020;Laerm;58902;51.436;5.980;2022-08-05T00:17:17;34.67;31.85;36.39;;
71020;Laerm;58902;51.436;5.980;2022-08-05T00:17:27;31.32;29.86;33.51;;
71020;Laerm;58902;51.436;5.980;2022-08-05T00:17:38;31.38;30.19;35.10;;
71020;Laerm;58902;51.436;5.980;2022-08-05T00:17:48;31.05;29.69;32.75;;
71020;Laerm;58902;51.436;5.980;2022-08-05T00:17:58;31.85;29.92;33.70;;
71020;Laerm;58902;51.436;5.980;2022-08-05T00:18:09;31.36;29.95;33.28;;
71020;Laerm;58902;51.436;5.980;2022-08-05T00:18:19;31.02;29.05;32.77;;
71020;Laerm;58902;51.436;5.980;2022-08-05T00:18:29;30.21;28.83;31.98;;
71020;Laerm;58902;51.436;5.980;2022-08-05T00:18:46;30.48;29.30;33.91;;
71020;Laerm;58902;51.436;5.980;2022-08-05T00:18:57;30.27;28.98;32.31;;
71020;Laerm;58902;51.436;5.980;2022-08-05T00:19:07;30.10;28.84;33.30;;
71020;Laerm;58902;51.436;5.980;2022-08-05T00:19:18;30.52;28.68;33.33;;
71020;Laerm;58902;51.436;5.980;2022-08-05T00:19:28;30.02;28.93;31.76;;
71020;Laerm;58902;51.436;5.980;2022-08-05T00:19:38;30.26;28.39;33.75;;
71020;Laerm;58902;51.436;5.980;2022-08-05T00:19:49;30.39;28.76;32.68;;
71020;Laerm;58902;51.436;5.980;2022-08-05T00:19:59;31.83;28.63;34.23;;
71020;Laerm;58902;51.436;5.980;2022-08-05T00:20:09;32.31;31.06;33.93;;
71020;Laerm;58902;51.436;5.980;2022-08-05T00:20:20;31.51;28.65;33.40;;
71020;Laerm;58902;51.436;5.980;2022-08-05T00:20:30;30.09;28.96;33.63;;
71020;Laerm;58902;51.436;5.980;2022-08-05T00:20:41;30.09;28.44;33.84;;
71020;Laerm;58902;51.436;5.980;2022-08-05T00:20:51;29.87;28.67;31.51;;
71020;Laerm;58902;51.436;5.980;2022-08-05T00:21:02;29.72;28.50;31.87;;
71020;Laerm;58902;51.436;5.980;2022-08-05T00:21:13;29.92;28.56;31.50;;
71020;Laerm;58902;51.436;5.980;2022-08-05T00:21:24;30.66;29.07;32.86;;
71020;Laerm;58902;51.436;5.980;2022-08-05T00:21:35;30.75;29.00;34.38;;
71020;Laerm;58902;51.436;5.980;2022-08-05T00:21:45;30.41;29.04;32.05;;
71020;Laerm;58902;51.436;5.980;2022-08-05T00:21:56;29.85;28.47;31.29;;
71020;Laerm;58902;51.436;5.980;2022-08-05T00:22:07;30.41;29.35;31.74;;
71020;Laerm;58902;51.436;5.980;2022-08-05T00:22:17;30.94;29.41;33.01;;
71020;Laerm;58902;51.436;5.980;2022-08-05T00:22:28;30.82;28.92;33.52;;
71020;Laerm;58902;51.436;5.980;2022-08-05T00:22:39;30.75;29.33;34.59;;
71020;Laerm;58902;51.436;5.980;2022-08-05T00:22:49;31.00;29.27;34.74;;
71020;Laerm;58902;51.436;5.980;2022-08-05T00:23:00;31.61;30.19;33.61;;
71020;Laerm;58902;51.436;5.980;2022-08-05T00:23:10;31.76;29.99;33.04;;
71020;Laerm;58902;51.436;5.980;2022-08-05T00:23:21;31.84;30.04;33.19;;
71020;Laerm;58902;51.436;5.980;2022-08-05T00:23:31;31.54;29.92;34.46;;
71020;Laerm;58902;51.436;5.980;2022-08-05T00:23:43;34.06;30.34;37.52;;
71020;Laerm;58902;51.436;5.980;2022-08-05T00:23:54;35.79;32.10;38.55;;
71020;Laerm;58902;51.436;5.980;2022-08-05T00:24:05;32.96;31.51;34.44;;
71020;Laerm;58902;51.436;5.980;2022-08-05T00:24:16;32.39;30.33;33.99;;
71020;Laerm;58902;51.436;5.980;2022-08-05T00:24:26;31.05;29.66;33.37;;
71020;Laerm;58902;51.436;5.980;2022-08-05T00:24:37;31.39;29.65;33.96;;
71020;Laerm;58902;51.436;5.980;2022-08-05T00:24:47;31.57;29.83;33.33;;
71020;Laerm;58902;51.436;5.980;2022-08-05T00:24:58;33.60;30.75;35.16;;
71020;Laerm;58902;51.436;5.980;2022-08-05T00:25:09;34.84;33.53;36.39;;
71020;Laerm;58902;51.436;5.980;2022-08-05T00:25:20;34.68;31.44;37.42;;
71020;Laerm;58902;51.436;5.980;2022-08-05T00:25:30;32.81;31.55;34.16;;
71020;Laerm;58902;51.436;5.980;2022-08-05T00:25:41;32.50;31.25;34.67;;
71020;Laerm;58902;51.436;5.980;2022-08-05T00:25:51;32.16;30.46;33.61;;
71020;Laerm;58902;51.436;5.980;2022-08-05T00:26:02;32.01;30.62;35.71;;
71020;Laerm;58902;51.436;5.980;2022-08-05T00:26:13;32.32;29.91;36.48;;
71020;Laerm;58902;51.436;5.980;2022-08-05T00:26:25;34.16;31.72;37.56;;
71020;Laerm;58902;51.436;5.980;2022-08-05T00:26:36;34.69;33.59;36.35;;
71020;Laerm;58902;51.436;5.980;2022-08-05T00:26:46;35.16;33.82;36.30;;
71020;Laerm;58902;51.436;5.980;2022-08-05T00:26:58;33.86;30.68;36.96;;
71020;Laerm;58902;51.436;5.980;2022-08-05T00:27:08;31.74;30.39;32.93;;
71020;Laerm;58902;51.436;5.980;2022-08-05T00:27:19;31.80;30.61;33.29;;
71020;Laerm;58902;51.436;5.980;2022-08-05T00:27:29;31.66;30.41;35.03;;
71020;Laerm;58902;51.436;5.980;2022-08-05T00:27:40;31.85;30.51;34.35;;
71020;Laerm;58902;51.436;5.980;2022-08-05T00:27:51;31.85;30.66;33.41;;
71020;Laerm;58902;51.436;5.980;2022-08-05T00:28:02;33.74;31.24;36.38;;
71020;Laerm;58902;51.436;5.980;2022-08-05T00:28:13;34.38;32.92;35.83;;
71020;Laerm;58902;51.436;5.980;2022-08-05T00:28:24;34.50;33.11;36.66;;
71020;Laerm;58902;51.436;5.980;2022-08-05T00:28:36;32.16;29.76;36.25;;
71020;Laerm;58902;51.436;5.980;2022-08-05T00:28:48;31.56;30.20;32.72;;
71020;Laerm;58902;51.436;5.980;2022-08-05T00:29:00;31.42;30.04;33.33;;
71020;Laerm;58902;51.436;5.980;2022-08-05T00:29:11;31.54;30.20;33.70;;
71020;Laerm;58902;51.436;5.980;2022-08-05T00:29:21;31.56;29.81;36.33;;
71020;Laerm;58902;51.436;5.980;2022-08-05T00:29:32;35.66;31.96;37.14;;
71020;Laerm;58902;51.436;5.980;2022-08-05T00:29:43;36.06;35.06;37.48;;
71020;Laerm;58902;51.436;5.980;2022-08-05T00:29:54;35.62;31.83;39.56;;
71020;Laerm;58902;51.436;5.980;2022-08-05T00:30:04;32.73;31.44;33.91;;
71020;Laerm;58902;51.436;5.980;2022-08-05T00:30:15;32.93;31.69;33.97;;
71020;Laerm;58902;51.436;5.980;2022-08-05T00:30:26;34.16;31.03;41.08;;
71020;Laerm;58902;51.436;5.980;2022-08-05T00:30:36;33.09;30.16;37.44;;
71020;Laerm;58902;51.436;5.980;2022-08-05T00:30:46;31.53;29.02;35.48;;
71020;Laerm;58902;51.436;5.980;2022-08-05T00:30:57;32.05;29.17;43.08;;
71020;Laerm;58902;51.436;5.980;2022-08-05T00:31:07;36.87;28.97;51.07;;
71020;Laerm;58902;51.436;5.980;2022-08-05T00:31:17;30.47;29.13;32.81;;
71020;Laerm;58902;51.436;5.980;2022-08-05T00:31:28;30.21;28.88;31.95;;
71020;Laerm;58902;51.436;5.980;2022-08-05T00:31:38;30.26;28.90;33.88;;
71020;Laerm;58902;51.436;5.980;2022-08-05T00:31:49;30.22;28.82;32.12;;
71020;Laerm;58902;51.436;5.980;2022-08-05T00:31:59;30.22;28.91;32.14;;
71020;Laerm;58902;51.436;5.980;2022-08-05T00:32:10;29.98;29.00;31.16;;
71020;Laerm;58902;51.436;5.980;2022-08-05T00:32:22;30.23;28.84;31.49;;
71020;Laerm;58902;51.436;5.980;2022-08-05T00:32:32;30.59;29.30;34.27;;
71020;Laerm;58902;51.436;5.980;2022-08-05T00:32:42;30.68;29.29;34.98;;
71020;Laerm;58902;51.436;5.980;2022-08-05T00:32:53;30.36;29.02;31.80;;
71020;Laerm;58902;51.436;5.980;2022-08-05T00:33:03;30.40;29.17;31.99;;
71020;Laerm;58902;51.436;5.980;2022-08-05T00:33:15;30.55;28.95;38.18;;
71020;Laerm;58902;51.436;5.980;2022-08-05T00:33:25;30.61;28.92;32.60;;
71020;Laerm;58902;51.436;5.980;2022-08-05T00:33:35;30.72;29.27;33.44;;
71020;Laerm;58902;51.436;5.980;2022-08-05T00:33:46;30.76;29.26;32.09;;
71020;Laerm;58902;51.436;5.980;2022-08-05T00:33:56;30.79;29.52;32.35;;
71020;Laerm;58902;51.436;5.980;2022-08-05T00:34:06;30.77;29.28;36.70;;
71020;Laerm;58902;51.436;5.980;2022-08-05T00:34:17;30.75;29.39;32.38;;
71020;Laerm;58902;51.436;5.980;2022-08-05T00:34:27;30.72;29.42;32.24;;
71020;Laerm;58902;51.436;5.980;2022-08-05T00:34:38;30.88;29.04;33.15;;
71020;Laerm;58902;51.436;5.980;2022-08-05T00:34:49;30.90;29.59;32.22;;
71020;Laerm;58902;51.436;5.980;2022-08-05T00:34:59;31.07;29.73;32.86;;
71020;Laerm;58902;51.436;5.980;2022-08-05T00:35:09;30.98;29.64;32.41;;
71020;Laerm;58902;51.436;5.980;2022-08-05T00:35:20;30.85;29.39;32.01;;
71020;Laerm;58902;51.436;5.980;2022-08-05T00:35:30;30.79;29.34;32.05;;
71020;Laerm;58902;51.436;5.980;2022-08-05T00:35:40;31.10;29.76;34.94;;
71020;Laerm;58902;51.436;5.980;2022-08-05T00:35:51;32.55;30.00;38.37;;
71020;Laerm;58902;51.436;5.980;2022-08-05T00:36:02;38.95;34.74;42.50;;
71020;Laerm;58902;51.436;5.980;2022-08-05T00:36:13;34.03;30.73;37.44;;
71020;Laerm;58902;51.436;5.980;2022-08-05T00:36:24;31.23;29.72;34.49;;
71020;Laerm;58902;51.436;5.980;2022-08-05T00:36:35;30.85;29.48;33.64;;
71020;Laerm;58902;51.436;5.980;2022-08-05T00:36:46;30.68;29.40;31.87;;
71020;Laerm;58902;51.436;5.980;2022-08-05T00:36:56;30.74;29.40;32.71;;
71020;Laerm;58902;51.436;5.980;2022-08-05T00:37:07;30.94;29.57;36.54;;
71020;Laerm;58902;51.436;5.980;2022-08-05T00:37:18;31.06;29.19;36.32;;
71020;Laerm;58902;51.436;5.980;2022-08-05T00:37:29;31.14;29.75;35.85;;
71020;Laerm;58902;51.436;5.980;2022-08-05T00:37:39;30.99;29.70;33.64;;
71020;Laerm;58902;51.436;5.980;2022-08-05T00:37:51;30.96;29.30;32.86;;
71020;Laerm;58902;51.436;5.980;2022-08-05T00:38:02;31.05;29.41;32.59;;
71020;Laerm;58902;51.436;5.980;2022-08-05T00:38:12;31.22;29.71;33.73;;
71020;Laerm;58902;51.436;5.980;2022-08-05T00:38:23;31.25;29.62;34.60;;
71020;Laerm;58902;51.436;5.980;2022-08-05T00:38:35;31.53;29.75;35.55;;
71020;Laerm;58902;51.436;5.980;2022-08-05T00:38:45;31.43;29.70;36.82;;
71020;Laerm;58902;51.436;5.980;2022-08-05T00:38:56;31.50;29.52;35.49;;
71020;Laerm;58902;51.436;5.980;2022-08-05T00:39:07;31.54;29.68;35.39;;
71020;Laerm;58902;51.436;5.980;2022-08-05T00:39:19;30.95;29.28;33.51;;
71020;Laerm;58902;51.436;5.980;2022-08-05T00:39:30;30.79;29.35;32.83;;
71020;Laerm;58902;51.436;5.980;2022-08-05T00:39:40;30.62;29.15;35.55;;
71020;Laerm;58902;51.436;5.980;2022-08-05T00:39:54;30.36;28.83;33.06;;
71020;Laerm;58902;51.436;5.980;2022-08-05T00:40:05;30.28;28.93;32.11;;
71020;Laerm;58902;51.436;5.980;2022-08-05T00:40:16;30.17;28.67;31.64;;
71020;Laerm;58902;51.436;5.980;2022-08-05T00:40:27;30.27;29.06;32.39;;
71020;Laerm;58902;51.436;5.980;2022-08-05T00:40:45;32.71;29.73;37.86;;
71020;Laerm;58902;51.436;5.980;2022-08-05T00:40:56;33.76;30.00;39.25;;
71020;Laerm;58902;51.436;5.980;2022-08-05T00:41:08;35.77;31.64;39.04;;
71020;Laerm;58902;51.436;5.980;2022-08-05T00:41:31;36.56;35.44;37.99;;
71020;Laerm;58902;51.436;5.980;2022-08-05T00:41:46;34.69;30.58;40.01;;
71020;Laerm;58902;51.436;5.980;2022-08-05T00:41:57;31.74;30.37;33.05;;
71020;Laerm;58902;51.436;5.980;2022-08-05T00:42:07;37.08;30.91;39.87;;
71020;Laerm;58902;51.436;5.980;2022-08-05T00:42:41;36.58;30.73;41.30;;
71020;Laerm;58902;51.436;5.980;2022-08-05T00:42:52;32.35;31.14;33.69;;
71020;Laerm;58902;51.436;5.980;2022-08-05T00:43:03;32.37;31.00;34.33;;
71020;Laerm;58902;51.436;5.980;2022-08-05T00:43:14;32.34;31.02;33.81;;
71020;Laerm;58902;51.436;5.980;2022-08-05T00:43:25;32.62;31.39;35.79;;
71020;Laerm;58902;51.436;5.980;2022-08-05T00:43:36;32.87;31.21;35.50;;
71020;Laerm;58902;51.436;5.980;2022-08-05T00:43:47;32.85;31.51;36.24;;
71020;Laerm;58902;51.436;5.980;2022-08-05T00:43:57;32.68;31.23;34.13;;
71020;Laerm;58902;51.436;5.980;2022-08-05T00:44:08;33.77;30.69;40.59;;
71020;Laerm;58902;51.436;5.980;2022-08-05T00:44:19;32.45;29.70;37.65;;
71020;Laerm;58902;51.436;5.980;2022-08-05T00:44:29;32.29;30.11;41.42;;
71020;Laerm;58902;51.436;5.980;2022-08-05T00:44:40;31.28;29.36;37.28;;
71020;Laerm;58902;51.436;5.980;2022-08-05T00:44:51;30.88;29.24;32.82;;
71020;Laerm;58902;51.436;5.980;2022-08-05T00:45:01;30.90;29.24;34.81;;
71020;Laerm;58902;51.436;5.980;2022-08-05T00:45:12;30.62;29.23;35.69;;
71020;Laerm;58902;51.436;5.980;2022-08-05T00:45:23;30.38;29.00;33.19;;
71020;Laerm;58902;51.436;5.980;2022-08-05T00:45:34;30.50;29.05;33.94;;
71020;Laerm;58902;51.436;5.980;2022-08-05T00:45:45;30.39;29.03;33.98;;
71020;Laerm;58902;51.436;5.980;2022-08-05T00:45:57;30.34;29.03;31.75;;
71020;Laerm;58902;51.436;5.980;2022-08-05T00:46:08;30.31;29.00;35.11;;
71020;Laerm;58902;51.436;5.980;2022-08-05T00:46:18;30.16;28.74;31.82;;
71020;Laerm;58902;51.436;5.980;2022-08-05T00:46:29;30.14;28.79;33.48;;
71020;Laerm;58902;51.436;5.980;2022-08-05T00:46:39;30.20;28.99;33.90;;
71020;Laerm;58902;51.436;5.980;2022-08-05T00:46:51;29.99;28.84;31.88;;
71020;Laerm;58902;51.436;5.980;2022-08-05T00:47:01;30.20;28.64;35.31;;
71020;Laerm;58902;51.436;5.980;2022-08-05T00:47:12;30.17;28.89;33.80;;
71020;Laerm;58902;51.436;5.980;2022-08-05T00:47:23;30.26;29.09;32.50;;
71020;Laerm;58902;51.436;5.980;2022-08-05T00:47:34;30.19;29.00;34.05;;
71020;Laerm;58902;51.436;5.980;2022-08-05T00:47:45;30.16;28.75;33.64;;
71020;Laerm;58902;51.436;5.980;2022-08-05T00:47:56;30.05;29.04;31.54;;
71020;Laerm;58902;51.436;5.980;2022-08-05T00:48:07;29.84;28.49;31.22;;
71020;Laerm;58902;51.436;5.980;2022-08-05T00:48:21;30.67;28.95;34.91;;
71020;Laerm;58902;51.436;5.980;2022-08-05T00:48:32;32.53;29.45;38.67;;
71020;Laerm;58902;51.436;5.980;2022-08-05T00:48:43;32.95;29.40;40.22;;
71020;Laerm;58902;51.436;5.980;2022-08-05T00:48:53;34.01;30.54;39.00;;
71020;Laerm;58902;51.436;5.980;2022-08-05T00:49:04;34.66;32.96;36.17;;
71020;Laerm;58902;51.436;5.980;2022-08-05T00:49:15;33.62;30.74;35.85;;
71020;Laerm;58902;51.436;5.980;2022-08-05T00:49:29;32.19;30.50;35.06;;
71020;Laerm;58902;51.436;5.980;2022-08-05T00:49:39;32.23;30.84;34.66;;
71020;Laerm;58902;51.436;5.980;2022-08-05T00:49:50;31.94;30.39;33.65;;
71020;Laerm;58902;51.436;5.980;2022-08-05T00:50:00;32.48;30.94;34.23;;
71020;Laerm;58902;51.436;5.980;2022-08-05T00:50:11;32.45;30.85;34.66;;
71020;Laerm;58902;51.436;5.980;2022-08-05T00:50:21;32.26;30.68;33.75;;
71020;Laerm;58902;51.436;5.980;2022-08-05T00:50:31;32.88;31.41;35.05;;
71020;Laerm;58902;51.436;5.980;2022-08-05T00:50:42;33.20;31.18;37.50;;
71020;Laerm;58902;51.436;5.980;2022-08-05T00:50:53;33.52;31.60;35.21;;
71020;Laerm;58902;51.436;5.980;2022-08-05T00:51:03;33.58;31.48;36.19;;
71020;Laerm;58902;51.436;5.980;2022-08-05T00:51:13;33.06;31.66;35.07;;
71020;Laerm;58902;51.436;5.980;2022-08-05T00:51:24;32.48;30.87;34.62;;
71020;Laerm;58902;51.436;5.980;2022-08-05T00:51:34;32.92;30.62;35.69;;
71020;Laerm;58902;51.436;5.980;2022-08-05T00:51:46;35.12;32.14;41.28;;
71020;Laerm;58902;51.436;5.980;2022-08-05T00:51:56;33.13;31.27;34.89;;
71020;Laerm;58902;51.436;5.980;2022-08-05T00:52:06;33.74;31.40;37.03;;
71020;Laerm;58902;51.436;5.980;2022-08-05T00:52:17;32.83;31.52;35.32;;
71020;Laerm;58902;51.436;5.980;2022-08-05T00:52:27;32.18;29.90;34.91;;
71020;Laerm;58902;51.436;5.980;2022-08-05T00:52:38;31.96;30.55;34.88;;
71020;Laerm;58902;51.436;5.980;2022-08-05T00:52:48;31.60;29.92;33.14;;
71020;Laerm;58902;51.436;5.980;2022-08-05T00:52:58;36.01;31.28;38.07;;
71020;Laerm;58902;51.436;5.980;2022-08-05T00:53:08;36.98;35.71;38.18;;
71020;Laerm;58902;51.436;5.980;2022-08-05T00:53:20;36.75;35.34;37.89;;
71020;Laerm;58902;51.436;5.980;2022-08-05T00:53:30;36.51;34.91;37.69;;
71020;Laerm;58902;51.436;5.980;2022-08-05T00:53:40;36.35;35.14;37.76;;
71020;Laerm;58902;51.436;5.980;2022-08-05T00:53:51;36.32;35.07;37.42;;
71020;Laerm;58902;51.436;5.980;2022-08-05T00:54:01;36.36;34.94;37.64;;
71020;Laerm;58902;51.436;5.980;2022-08-05T00:54:12;33.78;29.80;37.36;;
71020;Laerm;58902;51.436;5.980;2022-08-05T00:54:22;31.15;29.89;33.00;;
71020;Laerm;58902;51.436;5.980;2022-08-05T00:54:33;31.17;30.09;33.71;;
71020;Laerm;58902;51.436;5.980;2022-08-05T00:54:43;31.80;30.32;35.46;;
71020;Laerm;58902;51.436;5.980;2022-08-05T00:54:53;31.93;30.48;33.35;;
71020;Laerm;58902;51.436;5.980;2022-08-05T00:55:04;31.80;30.72;33.73;;
71020;Laerm;58902;51.436;5.980;2022-08-05T00:55:14;31.42;29.89;34.66;;
71020;Laerm;58902;51.436;5.980;2022-08-05T00:55:24;31.30;29.82;32.93;;
71020;Laerm;58902;51.436;5.980;2022-08-05T00:55:35;31.31;29.80;34.26;;
71020;Laerm;58902;51.436;5.980;2022-08-05T00:55:45;30.61;29.16;33.17;;
71020;Laerm;58902;51.436;5.980;2022-08-05T00:55:56;30.25;29.15;31.89;;
71020;Laerm;58902;51.436;5.980;2022-08-05T00:56:06;31.38;29.18;36.52;;
71020;Laerm;58902;51.436;5.980;2022-08-05T00:56:17;31.51;29.98;34.14;;
71020;Laerm;58902;51.436;5.980;2022-08-05T00:56:27;31.64;30.12;33.59;;
71020;Laerm;58902;51.436;5.980;2022-08-05T00:56:38;32.16;30.13;35.09;;
71020;Laerm;58902;51.436;5.980;2022-08-05T00:56:48;32.61;30.93;34.68;;
71020;Laerm;58902;51.436;5.980;2022-08-05T00:56:58;32.41;31.12;33.57;;
71020;Laerm;58902;51.436;5.980;2022-08-05T00:57:09;32.24;30.03;35.18;;
71020;Laerm;58902;51.436;5.980;2022-08-05T00:57:19;32.19;30.50;36.12;;
71020;Laerm;58902;51.436;5.980;2022-08-05T00:57:29;31.73;30.48;33.77;;
71020;Laerm;58902;51.436;5.980;2022-08-05T00:57:40;32.86;29.57;36.96;;
71020;Laerm;58902;51.436;5.980;2022-08-05T00:57:50;31.03;29.66;32.68;;
71020;Laerm;58902;51.436;5.980;2022-08-05T00:58:00;30.89;29.62;33.00;;
71020;Laerm;58902;51.436;5.980;2022-08-05T00:58:11;31.19;29.62;35.50;;
71020;Laerm;58902;51.436;5.980;2022-08-05T00:58:22;31.35;29.89;33.30;;
71020;Laerm;58902;51.436;5.980;2022-08-05T00:58:32;31.08;29.60;33.56;;
71020;Laerm;58902;51.436;5.980;2022-08-05T00:58:42;32.16;30.03;34.10;;
71020;Laerm;58902;51.436;5.980;2022-08-05T00:58:53;32.69;31.11;34.06;;
71020;Laerm;58902;51.436;5.980;2022-08-05T00:59:04;32.58;31.35;33.72;;
71020;Laerm;58902;51.436;5.980;2022-08-05T00:59:14;32.13;30.87;34.87;;
71020;Laerm;58902;51.436;5.980;2022-08-05T00:59:24;32.24;30.85;34.65;;
71020;Laerm;58902;51.436;5.980;2022-08-05T00:59:35;32.07;30.78;34.52;;
71020;Laerm;58902;51.436;5.980;2022-08-05T00:59:45;34.19;32.14;36.22;;
71020;Laerm;58902;51.436;5.980;2022-08-05T00:59:57;34.67;33.28;36.47;;
71020;Laerm;58902;51.436;5.980;2022-08-05T01:00:07;39.28;32.33;50.90;;
71020;Laerm;58902;51.436;5.980;2022-08-05T01:00:18;38.99;31.21;50.44;;
71020;Laerm;58902;51.436;5.980;2022-08-05T01:00:29;32.65;31.49;34.46;;
71020;Laerm;58902;51.436;5.980;2022-08-05T01:00:39;32.65;31.04;34.56;;
71020;Laerm;58902;51.436;5.980;2022-08-05T01:00:50;33.64;30.56;39.51;;
71020;Laerm;58902;51.436;5.980;2022-08-05T01:01:00;34.08;30.87;37.99;;
71020;Laerm;58902;51.436;5.980;2022-08-05T01:01:11;33.18;31.48;39.65;;
71020;Laerm;58902;51.436;5.980;2022-08-05T01:01:21;31.27;29.31;34.80;;
71020;Laerm;58902;51.436;5.980;2022-08-05T01:01:32;30.40;28.95;34.73;;
71020;Laerm;58902;51.436;5.980;2022-08-05T01:01:42;30.11;28.84;31.92;;
71020;Laerm;58902;51.436;5.980;2022-08-05T01:01:53;30.13;29.02;32.62;;
71020;Laerm;58902;51.436;5.980;2022-08-05T01:02:04;30.13;28.90;31.36;;